createdAt,value
2023-05-19T00:00:33.936Z,0.00
2023-05-19T00:01:34.082Z,0.00
2023-05-19T00:02:34.593Z,0.00
2023-05-19T00:03:34.814Z,0.00
2023-05-19T00:04:35.128Z,0.00
2023-05-19T00:05:35.539Z,0.00
2023-05-19T00:06:35.836Z,0.00
2023-05-19T00:07:36.208Z,0.00
2023-05-19T00:08:36.542Z,0.00
2023-05-19T00:09:36.883Z,0.00
2023-05-19T00:10:37.224Z,0.00
2023-05-19T00:11:37.555Z,0.00
2023-05-19T00:12:37.915Z,0.00
2023-05-19T00:13:38.258Z,0.00
2023-05-19T00:14:38.596Z,0.00
2023-05-19T00:15:38.996Z,0.00
2023-05-19T00:16:39.293Z,0.00
2023-05-19T00:17:39.702Z,0.00
2023-05-19T00:18:40.028Z,0.00
2023-05-19T00:19:40.375Z,0.00
2023-05-19T00:20:40.697Z,0.00
2023-05-19T00:21:41.021Z,0.00
2023-05-19T00:22:41.368Z,0.00
2023-05-19T00:23:41.694Z,0.00
2023-05-19T00:24:42.077Z,0.00
2023-05-19T00:25:42.439Z,0.00
2023-05-19T00:26:42.790Z,0.00
2023-05-19T00:27:43.132Z,0.00
2023-05-19T00:28:43.487Z,0.00
2023-05-19T00:29:43.889Z,0.00
2023-05-19T00:30:44.151Z,0.00
2023-05-19T00:31:44.520Z,0.00
2023-05-19T00:32:44.947Z,0.00
2023-05-19T00:33:45.206Z,0.00
2023-05-19T00:34:45.532Z,0.00
2023-05-19T00:35:45.881Z,0.00
2023-05-19T00:36:46.219Z,0.00
2023-05-19T00:37:46.613Z,0.00
2023-05-19T00:38:46.911Z,0.00
2023-05-19T00:39:47.276Z,0.00
2023-05-19T00:40:47.620Z,0.00
2023-05-19T00:41:47.961Z,0.00
2023-05-19T00:42:48.357Z,0.00
2023-05-19T00:43:48.662Z,0.00
2023-05-19T00:44:49.010Z,0.00
2023-05-19T00:45:49.362Z,0.00
2023-05-19T00:46:49.707Z,0.00
2023-05-19T00:47:50.103Z,0.00
2023-05-19T00:48:50.419Z,0.00
2023-05-19T00:49:50.764Z,0.00
2023-05-19T00:50:51.153Z,0.00
2023-05-19T00:51:51.467Z,0.00
2023-05-19T00:52:51.850Z,0.00
2023-05-19T00:53:52.212Z,0.00
2023-05-19T00:54:52.555Z,0.00
2023-05-19T00:55:52.901Z,0.00
2023-05-19T00:56:53.242Z,0.00
2023-05-19T00:57:53.603Z,0.00
2023-05-19T00:58:53.938Z,0.00
2023-05-19T00:59:54.275Z,0.00
2023-05-19T01:00:54.641Z,0.00
2023-05-19T01:01:54.961Z,0.00
2023-05-19T01:02:55.366Z,0.00
2023-05-19T01:03:55.730Z,0.00
2023-05-19T01:04:55.957Z,0.00
2023-05-19T01:05:56.302Z,0.00
2023-05-19T01:06:56.655Z,0.00
2023-05-19T01:07:57.038Z,0.00
2023-05-19T01:08:57.336Z,0.00
2023-05-19T01:09:57.672Z,0.00
2023-05-19T01:10:58.116Z,0.00
2023-05-19T01:11:58.376Z,0.00
2023-05-19T01:12:58.764Z,0.00
2023-05-19T01:13:59.055Z,0.00
2023-05-19T01:14:59.400Z,0.00
2023-05-19T01:15:59.764Z,0.00
2023-05-19T01:17:00.087Z,0.00
2023-05-19T01:18:00.513Z,0.00
2023-05-19T01:19:00.788Z,0.00
2023-05-19T01:20:01.155Z,0.00
2023-05-19T01:21:01.472Z,0.00
2023-05-19T01:22:01.817Z,0.00
2023-05-19T01:23:02.164Z,0.00
2023-05-19T01:24:02.605Z,0.00
2023-05-19T01:25:02.894Z,0.00
2023-05-19T01:26:03.235Z,0.00
2023-05-19T01:27:03.568Z,0.00
2023-05-19T01:28:03.923Z,0.00
2023-05-19T01:29:04.270Z,0.00
2023-05-19T01:30:04.625Z,0.00
2023-05-19T01:31:04.966Z,0.00
2023-05-19T01:32:05.384Z,0.00
2023-05-19T01:33:05.721Z,0.00
2023-05-19T01:34:05.990Z,0.00
2023-05-19T01:35:06.322Z,0.00
2023-05-19T01:36:06.695Z,0.00
2023-05-19T01:37:07.054Z,0.00
2023-05-19T01:38:07.390Z,0.00
2023-05-19T01:39:07.729Z,0.00
2023-05-19T01:40:08.082Z,0.00
2023-05-19T01:41:08.460Z,0.00
2023-05-19T01:42:08.793Z,0.00
2023-05-19T01:43:09.156Z,0.00
2023-05-19T01:44:09.504Z,0.00
2023-05-19T01:45:09.836Z,0.00
2023-05-19T01:46:10.219Z,0.00
2023-05-19T01:47:10.524Z,0.00
2023-05-19T01:48:11.332Z,0.00
2023-05-19T01:49:11.257Z,0.00
2023-05-19T01:50:11.576Z,0.00
2023-05-19T01:51:11.933Z,0.00
2023-05-19T01:52:12.274Z,0.00
2023-05-19T01:53:12.650Z,0.00
2023-05-19T01:54:12.939Z,0.00
2023-05-19T01:55:13.303Z,0.00
2023-05-19T01:56:13.652Z,0.00
2023-05-19T01:57:13.987Z,0.00
2023-05-19T01:58:14.340Z,0.00
2023-05-19T01:59:14.689Z,0.00
2023-05-19T02:00:15.028Z,0.00
2023-05-19T02:01:15.483Z,0.00
2023-05-19T02:02:15.731Z,0.00
2023-05-19T02:03:16.083Z,0.00
2023-05-19T02:04:16.463Z,0.00
2023-05-19T02:05:16.778Z,0.00
2023-05-19T02:06:17.141Z,0.00
2023-05-19T02:07:17.461Z,0.00
2023-05-19T02:08:17.826Z,0.00
2023-05-19T02:09:18.156Z,0.00
2023-05-19T02:10:18.496Z,0.00
2023-05-19T02:11:18.872Z,0.00
2023-05-19T02:12:19.175Z,0.00
2023-05-19T02:13:19.501Z,0.00
2023-05-19T02:14:19.842Z,0.00
2023-05-19T02:15:20.233Z,0.00
2023-05-19T02:16:20.687Z,0.00
2023-05-19T02:17:20.982Z,0.00
2023-05-19T02:18:21.248Z,0.00
2023-05-19T02:19:21.743Z,0.00
2023-05-19T02:20:21.950Z,0.00
2023-05-19T02:21:22.306Z,0.00
2023-05-19T02:22:22.675Z,0.00
2023-05-19T02:23:23.015Z,0.00
2023-05-19T02:24:23.364Z,0.00
2023-05-19T02:25:23.728Z,0.00
2023-05-19T02:26:24.133Z,0.00
2023-05-19T02:27:24.470Z,0.00
2023-05-19T02:28:24.820Z,0.00
2023-05-19T02:29:25.199Z,0.00
2023-05-19T02:30:25.527Z,0.00
2023-05-19T02:31:25.931Z,0.00
2023-05-19T02:32:26.207Z,1.00
2023-05-19T02:33:26.372Z,1.00
2023-05-19T02:34:26.683Z,1.00
2023-05-19T02:35:26.952Z,1.00
2023-05-19T02:36:27.212Z,2.00
2023-05-19T02:37:27.516Z,2.00
2023-05-19T02:38:27.789Z,2.00
2023-05-19T02:39:28.076Z,2.00
2023-05-19T02:40:28.360Z,3.00
2023-05-19T02:41:28.643Z,3.00
2023-05-19T02:42:28.919Z,3.00
2023-05-19T02:43:29.181Z,5.00
2023-05-19T02:44:29.515Z,7.00
2023-05-19T02:45:29.781Z,5.00
2023-05-19T02:46:30.061Z,7.00
2023-05-19T02:47:30.384Z,8.00
2023-05-19T02:48:30.603Z,10.00
2023-05-19T02:49:30.979Z,11.00
2023-05-19T02:50:31.437Z,7.00
2023-05-19T02:51:31.480Z,9.00
2023-05-19T02:52:31.802Z,12.00
2023-05-19T02:53:32.085Z,16.00
2023-05-19T02:54:32.397Z,21.00
2023-05-19T02:55:32.704Z,19.00
2023-05-19T02:56:32.969Z,21.00
2023-05-19T02:57:33.244Z,26.00
2023-05-19T02:58:33.524Z,25.00
2023-05-19T02:59:33.712Z,33.00
2023-05-19T03:00:34.177Z,35.00
2023-05-19T03:01:34.261Z,35.00
2023-05-19T03:02:34.623Z,43.00
2023-05-19T03:03:34.872Z,47.00
2023-05-19T03:04:34.989Z,49.00
2023-05-19T03:05:35.157Z,55.00
2023-05-19T03:06:35.421Z,53.00
2023-05-19T03:07:35.733Z,64.00
2023-05-19T03:08:35.998Z,64.00
2023-05-19T03:09:36.315Z,83.00
2023-05-19T03:10:36.592Z,80.00
2023-05-19T03:11:36.897Z,87.00
2023-05-19T03:12:37.176Z,97.00
2023-05-19T03:13:37.316Z,104.00
2023-05-19T03:14:37.653Z,114.00
2023-05-19T03:15:37.892Z,118.00
2023-05-19T03:16:38.306Z,130.00
2023-05-19T03:17:38.604Z,136.00
2023-05-19T03:18:38.720Z,145.00
2023-05-19T03:19:38.968Z,152.00
2023-05-19T03:20:40.964Z,159.00
2023-05-19T03:21:39.285Z,176.00
2023-05-19T03:22:39.502Z,182.00
2023-05-19T03:23:39.635Z,196.00
2023-05-19T03:24:39.817Z,204.00
2023-05-19T03:25:39.978Z,218.00
2023-05-19T03:26:40.276Z,230.00
2023-05-19T03:27:40.460Z,233.00
2023-05-19T03:28:40.637Z,248.00
2023-05-19T03:29:40.839Z,259.00
2023-05-19T03:30:40.978Z,272.00
2023-05-19T03:31:41.143Z,285.00
2023-05-19T03:32:41.380Z,293.00
2023-05-19T03:33:41.702Z,305.00
2023-05-19T03:34:41.768Z,317.00
2023-05-19T03:35:42.086Z,330.00
2023-05-19T03:36:42.252Z,343.00
2023-05-19T03:37:42.431Z,356.00
2023-05-19T03:38:42.581Z,370.00
2023-05-19T03:39:42.751Z,378.00
2023-05-19T03:40:42.948Z,391.00
2023-05-19T03:41:43.233Z,402.00
2023-05-19T03:42:43.425Z,406.00
2023-05-19T03:43:43.579Z,425.00
2023-05-19T03:44:43.746Z,440.00
2023-05-19T03:45:43.944Z,448.00
2023-05-19T03:46:44.076Z,464.00
2023-05-19T03:47:44.331Z,474.00
2023-05-19T03:48:44.548Z,492.00
2023-05-19T03:49:44.842Z,502.00
2023-05-19T03:50:45.119Z,517.00
2023-05-19T03:51:45.427Z,527.00
2023-05-19T03:52:45.620Z,541.00
2023-05-19T03:53:45.766Z,559.00
2023-05-19T03:54:45.937Z,575.00
2023-05-19T03:55:46.110Z,588.00
2023-05-19T03:56:46.296Z,599.00
2023-05-19T03:57:46.501Z,612.00
2023-05-19T03:58:46.657Z,621.00
2023-05-19T03:59:46.834Z,635.00
2023-05-19T04:00:46.964Z,643.00
2023-05-19T04:01:47.135Z,656.00
2023-05-19T04:02:47.420Z,680.00
2023-05-19T04:03:47.569Z,692.00
2023-05-19T04:04:47.818Z,705.00
2023-05-19T04:05:47.822Z,718.00
2023-05-19T04:06:48.006Z,734.00
2023-05-19T04:07:48.188Z,747.00
2023-05-19T04:08:48.350Z,761.00
2023-05-19T04:09:48.527Z,775.00
2023-05-19T04:10:48.708Z,787.00
2023-05-19T04:11:49.004Z,805.00
2023-05-19T04:12:49.219Z,820.00
2023-05-19T04:13:49.442Z,845.00
2023-05-19T04:14:49.621Z,858.00
2023-05-19T04:15:49.886Z,878.00
2023-05-19T04:16:49.971Z,892.00
2023-05-19T04:17:50.193Z,914.00
2023-05-19T04:18:50.351Z,933.00
2023-05-19T04:19:50.467Z,958.00
2023-05-19T04:20:50.789Z,982.00
2023-05-19T04:21:50.972Z,1011.00
2023-05-19T04:22:51.130Z,1048.00
2023-05-19T04:23:51.282Z,1080.00
2023-05-19T04:24:51.477Z,1115.00
2023-05-19T04:25:51.648Z,1155.00
2023-05-19T04:26:51.798Z,1195.00
2023-05-19T04:27:51.989Z,1235.00
2023-05-19T04:28:52.178Z,1279.00
2023-05-19T04:29:52.454Z,1314.00
2023-05-19T04:30:52.837Z,1352.00
2023-05-19T04:31:52.955Z,1386.00
2023-05-19T04:32:53.177Z,1414.00
2023-05-19T04:33:53.272Z,1444.00
2023-05-19T04:34:53.577Z,1471.00
2023-05-19T04:35:53.744Z,1497.00
2023-05-19T04:36:53.940Z,1532.00
2023-05-19T04:37:54.264Z,1559.00
2023-05-19T04:38:54.396Z,1585.00
2023-05-19T04:39:54.593Z,1617.00
2023-05-19T04:40:54.778Z,1633.00
2023-05-19T04:41:55.071Z,1656.00
2023-05-19T04:42:55.395Z,1673.00
2023-05-19T04:43:55.550Z,1693.00
2023-05-19T04:44:55.865Z,1708.00
2023-05-19T04:45:56.034Z,1719.00
2023-05-19T04:46:56.375Z,1721.00
2023-05-19T04:47:56.611Z,1744.00
2023-05-19T04:48:56.733Z,1758.00
2023-05-19T04:49:56.995Z,1779.00
2023-05-19T04:50:57.088Z,1803.00
2023-05-19T04:51:57.268Z,1833.00
2023-05-19T04:52:57.576Z,1861.00
2023-05-19T04:53:57.768Z,1881.00
2023-05-19T04:54:57.924Z,1909.00
2023-05-19T04:55:58.231Z,1943.00
2023-05-19T04:56:58.406Z,1966.00
2023-05-19T04:57:58.601Z,1985.00
2023-05-19T04:58:58.773Z,1998.00
2023-05-19T04:59:58.986Z,2013.00
2023-05-19T05:00:59.118Z,2017.00
2023-05-19T05:01:59.345Z,2039.00
2023-05-19T05:02:59.628Z,2052.00
2023-05-19T05:03:59.703Z,2057.00
2023-05-19T05:04:59.988Z,2081.00
2023-05-19T05:06:00.289Z,2089.00
2023-05-19T05:07:00.454Z,2111.00
2023-05-19T05:08:00.779Z,2127.00
2023-05-19T05:09:00.960Z,2162.00
2023-05-19T05:10:01.149Z,2190.00
2023-05-19T05:11:01.308Z,2209.00
2023-05-19T05:12:01.609Z,2240.00
2023-05-19T05:13:01.979Z,2274.00
2023-05-19T05:14:02.086Z,2299.00
2023-05-19T05:15:02.378Z,2325.00
2023-05-19T05:16:02.693Z,2358.00
2023-05-19T05:17:02.883Z,2392.00
2023-05-19T05:18:03.108Z,2422.00
2023-05-19T05:19:03.396Z,2471.00
2023-05-19T05:20:03.645Z,2524.00
2023-05-19T05:21:03.941Z,2599.00
2023-05-19T05:22:04.236Z,2665.00
2023-05-19T05:23:04.569Z,2730.00
2023-05-19T05:24:04.869Z,2805.00
2023-05-19T05:25:05.082Z,2863.00
2023-05-19T05:26:05.222Z,2930.00
2023-05-19T05:27:05.514Z,2984.00
2023-05-19T05:28:05.713Z,3048.00
2023-05-19T05:29:05.876Z,3108.00
2023-05-19T05:30:06.179Z,3193.00
2023-05-19T05:31:06.345Z,3281.00
2023-05-19T05:32:06.691Z,3370.00
2023-05-19T05:33:06.918Z,3463.00
2023-05-19T05:34:07.020Z,3554.00
2023-05-19T05:35:07.238Z,3637.00
2023-05-19T05:36:07.514Z,3718.00
2023-05-19T05:37:07.679Z,3804.00
2023-05-19T05:38:07.997Z,3872.00
2023-05-19T05:39:08.164Z,3944.00
2023-05-19T05:40:08.466Z,4013.00
2023-05-19T05:41:08.663Z,4080.00
2023-05-19T05:42:08.846Z,4151.00
2023-05-19T05:43:09.123Z,4190.00
2023-05-19T05:44:09.300Z,4234.00
2023-05-19T05:45:09.468Z,4268.00
2023-05-19T05:46:09.798Z,4314.00
2023-05-19T05:47:10.063Z,4351.00
2023-05-19T05:48:10.518Z,4385.00
2023-05-19T05:49:10.729Z,4409.00
2023-05-19T05:50:10.891Z,4445.00
2023-05-19T05:51:11.036Z,4494.00
2023-05-19T05:52:11.363Z,4517.00
2023-05-19T05:53:11.535Z,4541.00
2023-05-19T05:54:11.812Z,4562.00
2023-05-19T05:55:12.106Z,4567.00
2023-05-19T05:56:12.288Z,4553.00
2023-05-19T05:57:12.623Z,4558.00
2023-05-19T05:58:12.913Z,4533.00
2023-05-19T05:59:13.200Z,4520.00
2023-05-19T06:00:13.487Z,4492.00
2023-05-19T06:01:13.799Z,4456.00
2023-05-19T06:02:14.055Z,4421.00
2023-05-19T06:03:14.386Z,4392.00
2023-05-19T06:04:14.597Z,4365.00
2023-05-19T06:05:14.824Z,4361.00
2023-05-19T06:06:15.076Z,4373.00
2023-05-19T06:07:15.340Z,4369.00
2023-05-19T06:08:15.656Z,4378.00
2023-05-19T06:09:15.832Z,4392.00
2023-05-19T06:10:15.983Z,4393.00
2023-05-19T06:11:16.182Z,4419.00
2023-05-19T06:12:16.380Z,4461.00
2023-05-19T06:13:16.600Z,4460.00
2023-05-19T06:14:16.762Z,4487.00
2023-05-19T06:15:17.026Z,4481.00
2023-05-19T06:16:17.348Z,4493.00
2023-05-19T06:17:17.507Z,4521.00
2023-05-19T06:18:17.698Z,4550.00
2023-05-19T06:19:17.937Z,4553.00
2023-05-19T06:20:18.160Z,4564.00
2023-05-19T06:21:18.359Z,4584.00
2023-05-19T06:22:18.664Z,4605.00
2023-05-19T06:23:18.873Z,4593.00
2023-05-19T06:24:19.033Z,4568.00
2023-05-19T06:25:19.340Z,4552.00
2023-05-19T06:26:19.521Z,4535.00
2023-05-19T06:27:19.707Z,4529.00
2023-05-19T06:28:19.894Z,4515.00
2023-05-19T06:29:20.067Z,4531.00
2023-05-19T06:30:20.266Z,4512.00
2023-05-19T06:31:20.509Z,4508.00
2023-05-19T06:32:20.677Z,4494.00
2023-05-19T06:33:20.835Z,4454.00
2023-05-19T06:34:20.970Z,4414.00
2023-05-19T06:35:21.133Z,4362.00
2023-05-19T06:36:21.316Z,4297.00
2023-05-19T06:37:21.491Z,4232.00
2023-05-19T06:38:21.714Z,4181.00
2023-05-19T06:39:21.846Z,4132.00
2023-05-19T06:40:22.034Z,4058.00
2023-05-19T06:41:22.220Z,3943.00
2023-05-19T06:42:22.466Z,3836.00
2023-05-19T06:43:22.636Z,3769.00
2023-05-19T06:44:22.791Z,3720.00
2023-05-19T06:45:22.975Z,3692.00
2023-05-19T06:46:23.165Z,3654.00
2023-05-19T06:47:23.345Z,3601.00
2023-05-19T06:48:23.513Z,3517.00
2023-05-19T06:49:23.664Z,3387.00
2023-05-19T06:50:23.849Z,3249.00
2023-05-19T06:51:24.044Z,3202.00
2023-05-19T06:52:24.196Z,3182.00
2023-05-19T06:53:24.400Z,3186.00
2023-05-19T06:54:24.566Z,3187.00
2023-05-19T06:55:24.788Z,3181.00
2023-05-19T06:56:24.995Z,3112.00
2023-05-19T06:57:25.112Z,3007.00
2023-05-19T06:58:25.317Z,2954.00
2023-05-19T06:59:25.476Z,2974.00
2023-05-19T07:00:25.653Z,3002.00
2023-05-19T07:01:25.870Z,3011.00
2023-05-19T07:02:26.074Z,3025.00
2023-05-19T07:03:26.287Z,3009.00
2023-05-19T07:04:26.389Z,2988.00
2023-05-19T07:05:26.580Z,2985.00
2023-05-19T07:06:26.787Z,2916.00
2023-05-19T07:07:26.934Z,2924.00
2023-05-19T07:08:27.155Z,2916.00
2023-05-19T07:09:27.320Z,2979.00
2023-05-19T07:10:27.460Z,3026.00
2023-05-19T07:11:27.668Z,3041.00
2023-05-19T07:12:27.841Z,3041.00
2023-05-19T07:13:28.044Z,3083.00
2023-05-19T07:14:28.199Z,3068.00
2023-05-19T07:15:28.387Z,2913.00
2023-05-19T07:16:28.596Z,2987.00
2023-05-19T07:17:28.830Z,2988.00
2023-05-19T07:18:28.944Z,3008.00
2023-05-19T07:19:29.156Z,3119.00
2023-05-19T07:20:29.285Z,3180.00
2023-05-19T07:21:29.475Z,3215.00
2023-05-19T07:22:29.660Z,3218.00
2023-05-19T07:23:29.868Z,3204.00
2023-05-19T07:24:30.013Z,3179.00
2023-05-19T07:25:30.208Z,3049.00
2023-05-19T07:26:30.412Z,3108.00
2023-05-19T07:27:30.599Z,3127.00
2023-05-19T07:28:30.814Z,2909.00
2023-05-19T07:29:30.985Z,2966.00
2023-05-19T07:30:31.463Z,2913.00
2023-05-19T07:31:31.355Z,2829.00
2023-05-19T07:32:31.581Z,2698.00
2023-05-19T07:33:31.711Z,2741.00
2023-05-19T07:34:31.888Z,2695.00
2023-05-19T07:35:32.058Z,2665.00
2023-05-19T07:36:32.230Z,2681.00
2023-05-19T07:37:32.438Z,2756.00
2023-05-19T07:38:32.735Z,2852.00
2023-05-19T07:39:32.826Z,3005.00
2023-05-19T07:40:33.092Z,3216.00
2023-05-19T07:41:34.263Z,3435.00
2023-05-19T07:42:33.346Z,3596.00
2023-05-19T07:43:33.511Z,3766.00
2023-05-19T07:44:33.681Z,3924.00
2023-05-19T07:45:33.949Z,4110.00
2023-05-19T07:46:34.218Z,4220.00
2023-05-19T07:47:34.277Z,4259.00
2023-05-19T07:48:34.517Z,4246.00
2023-05-19T07:49:34.632Z,4157.00
2023-05-19T07:50:34.852Z,4057.00
2023-05-19T07:51:35.055Z,3896.00
2023-05-19T07:52:35.196Z,3726.00
2023-05-19T07:53:35.400Z,3630.00
2023-05-19T07:54:35.557Z,3614.00
2023-05-19T07:55:35.748Z,3640.00
2023-05-19T07:56:35.946Z,3724.00
2023-05-19T07:57:36.134Z,3857.00
2023-05-19T07:58:36.341Z,4012.00
2023-05-19T07:59:36.488Z,4150.00
2023-05-19T08:00:36.692Z,4258.00
2023-05-19T08:01:36.890Z,4356.00
2023-05-19T08:02:37.203Z,4459.00
2023-05-19T08:03:37.396Z,4572.00
2023-05-19T08:04:37.505Z,4715.00
2023-05-19T08:05:37.611Z,4819.00
2023-05-19T08:06:37.797Z,4929.00
2023-05-19T08:07:37.991Z,5003.00
2023-05-19T08:08:38.195Z,5068.00
2023-05-19T08:09:38.354Z,5166.00
2023-05-19T08:10:38.532Z,5326.00
2023-05-19T08:11:38.744Z,5423.00
2023-05-19T08:12:38.939Z,5525.00
2023-05-19T08:13:39.129Z,5594.00
2023-05-19T08:14:39.293Z,5645.00
2023-05-19T08:15:39.505Z,5744.00
2023-05-19T08:16:39.697Z,5800.00
2023-05-19T08:17:39.915Z,5842.00
2023-05-19T08:18:40.055Z,5848.00
2023-05-19T08:19:40.211Z,5856.00
2023-05-19T08:20:40.406Z,5788.00
2023-05-19T08:21:40.555Z,5800.00
2023-05-19T08:22:40.754Z,5820.00
2023-05-19T08:23:40.993Z,5824.00
2023-05-19T08:24:41.116Z,5809.00
2023-05-19T08:25:41.305Z,5749.00
2023-05-19T08:26:41.493Z,5697.00
2023-05-19T08:27:41.688Z,5689.00
2023-05-19T08:28:41.891Z,5661.00
2023-05-19T08:29:42.038Z,5634.00
2023-05-19T08:30:42.226Z,5615.00
2023-05-19T08:31:42.511Z,5625.00
2023-05-19T08:32:42.629Z,5670.00
2023-05-19T08:33:42.858Z,5763.00
2023-05-19T08:34:42.994Z,5886.00
2023-05-19T08:35:43.176Z,6021.00
2023-05-19T08:36:43.374Z,6147.00
2023-05-19T08:37:43.565Z,6194.00
2023-05-19T08:38:43.769Z,6260.00
2023-05-19T08:39:43.950Z,6198.00
2023-05-19T08:40:44.161Z,6226.00
2023-05-19T08:41:44.342Z,6205.00
2023-05-19T08:42:44.521Z,6088.00
2023-05-19T08:43:44.724Z,6015.00
2023-05-19T08:44:44.907Z,5962.00
2023-05-19T08:45:45.107Z,5939.00
2023-05-19T08:46:45.300Z,5932.00
2023-05-19T08:47:45.534Z,5865.00
2023-05-19T08:48:45.675Z,5802.00
2023-05-19T08:49:45.800Z,5755.00
2023-05-19T08:50:45.985Z,5718.00
2023-05-19T08:51:46.178Z,5773.00
2023-05-19T08:52:49.509Z,5879.00
2023-05-19T08:53:46.566Z,6056.00
2023-05-19T08:54:46.720Z,6538.00
2023-05-19T08:55:46.936Z,6922.00
2023-05-19T08:56:47.122Z,7286.00
2023-05-19T08:57:47.265Z,7353.00
2023-05-19T08:58:47.462Z,7314.00
2023-05-19T08:59:47.642Z,7393.00
2023-05-19T09:00:47.824Z,7657.00
2023-05-19T09:01:47.992Z,7957.00
2023-05-19T09:02:59.687Z,8176.00
2023-05-19T09:03:48.432Z,8391.00
2023-05-19T09:04:48.627Z,8551.00
2023-05-19T09:05:48.777Z,8982.00
2023-05-19T09:06:48.988Z,10768.00
2023-05-19T09:07:49.147Z,11861.00
2023-05-19T09:08:49.323Z,11226.00
2023-05-19T09:09:49.535Z,11152.00
2023-05-19T09:10:49.682Z,11157.00
2023-05-19T09:11:49.897Z,12388.00
2023-05-19T09:12:50.100Z,14277.00
2023-05-19T09:13:50.286Z,13397.00
2023-05-19T09:14:50.436Z,10761.00
2023-05-19T09:15:50.637Z,9693.00
2023-05-19T09:16:50.894Z,11411.00
2023-05-19T09:17:51.084Z,13219.00
2023-05-19T09:18:51.264Z,12792.00
2023-05-19T09:19:51.435Z,12534.00
2023-05-19T09:20:51.634Z,23770.00
2023-05-19T09:21:51.842Z,79307.00
2023-05-19T09:22:52.100Z,79445.00
2023-05-19T09:23:52.260Z,80646.00
2023-05-19T09:24:52.454Z,81520.00
2023-05-19T09:25:52.731Z,80647.00
2023-05-19T09:26:52.908Z,81655.00
2023-05-19T09:27:53.116Z,77637.00
2023-05-19T09:28:53.303Z,77288.00
2023-05-19T09:29:53.645Z,33932.00
2023-05-19T09:30:53.668Z,27247.00
2023-05-19T09:31:54.043Z,78603.00
2023-05-19T09:32:54.150Z,13105.00
2023-05-19T09:33:54.267Z,10952.00
2023-05-19T09:34:54.448Z,10419.00
2023-05-19T09:35:54.648Z,21181.00
2023-05-19T09:36:54.885Z,17486.00
2023-05-19T09:37:55.084Z,75819.00
2023-05-19T09:38:55.283Z,78100.00
2023-05-19T09:39:55.457Z,20181.00
2023-05-19T09:40:55.661Z,15200.00
2023-05-19T09:41:55.845Z,17665.00
2023-05-19T09:42:56.042Z,14117.00
2023-05-19T09:43:56.284Z,24946.00
2023-05-19T09:44:56.481Z,76134.00
2023-05-19T09:45:56.723Z,76201.00
2023-05-19T09:46:56.821Z,29707.00
2023-05-19T09:47:57.052Z,32239.00
2023-05-19T09:48:57.270Z,80576.00
2023-05-19T09:49:57.496Z,81777.00
2023-05-19T09:50:57.660Z,26224.00
2023-05-19T09:51:57.843Z,19275.00
2023-05-19T09:52:58.037Z,9027.00
2023-05-19T09:53:58.213Z,8381.00
2023-05-19T09:54:58.365Z,8174.00
2023-05-19T09:55:58.552Z,9003.00
2023-05-19T09:56:58.732Z,8675.00
2023-05-19T09:57:58.941Z,7717.00
2023-05-19T09:58:59.134Z,7629.00
2023-05-19T09:59:59.336Z,8771.00
2023-05-19T10:00:59.520Z,9111.00
2023-05-19T10:01:59.670Z,8579.00
2023-05-19T10:02:59.943Z,8550.00
2023-05-19T10:04:00.069Z,9064.00
2023-05-19T10:05:00.454Z,8634.00
2023-05-19T10:06:00.433Z,8170.00
2023-05-19T10:07:00.613Z,8847.00
2023-05-19T10:08:00.885Z,8842.00
2023-05-19T10:09:01.016Z,8954.00
2023-05-19T10:10:01.211Z,10000.00
2023-05-19T10:11:01.418Z,29878.00
2023-05-19T10:12:01.625Z,30839.00
2023-05-19T10:13:01.829Z,19239.00
2023-05-19T10:14:02.064Z,22845.00
2023-05-19T10:15:02.240Z,24764.00
2023-05-19T10:16:02.806Z,26565.00
2023-05-19T10:17:02.767Z,75081.00
2023-05-19T10:18:02.888Z,75625.00
2023-05-19T10:19:03.124Z,22927.00
2023-05-19T10:20:03.267Z,23644.00
2023-05-19T10:21:03.473Z,27268.00
2023-05-19T10:22:03.672Z,20568.00
2023-05-19T10:23:03.826Z,10717.00
2023-05-19T10:24:04.061Z,8667.00
2023-05-19T10:25:04.243Z,8329.00
2023-05-19T10:26:04.433Z,8048.00
2023-05-19T10:27:04.658Z,7918.00
2023-05-19T10:28:04.815Z,7852.00
2023-05-19T10:29:05.012Z,7923.00
2023-05-19T10:30:05.178Z,7915.00
2023-05-19T10:31:05.357Z,7932.00
2023-05-19T10:32:05.548Z,7897.00
2023-05-19T10:33:05.753Z,7865.00
2023-05-19T10:34:05.937Z,7686.00
2023-05-19T10:35:06.127Z,7459.00
2023-05-19T10:36:06.302Z,7293.00
2023-05-19T10:37:06.480Z,7059.00
2023-05-19T10:38:06.669Z,6944.00
2023-05-19T10:39:06.887Z,7147.00
2023-05-19T10:40:07.045Z,7137.00
2023-05-19T10:41:07.241Z,6312.00
2023-05-19T10:42:07.414Z,6941.00
2023-05-19T10:43:07.585Z,5745.00
2023-05-19T10:44:07.789Z,6205.00
2023-05-19T10:45:07.954Z,6930.00
2023-05-19T10:46:08.158Z,7024.00
2023-05-19T10:47:08.414Z,7346.00
2023-05-19T10:48:08.612Z,7521.00
2023-05-19T10:49:08.820Z,7446.00
2023-05-19T10:50:08.954Z,7917.00
2023-05-19T10:51:09.147Z,10786.00
2023-05-19T10:52:09.280Z,10818.00
2023-05-19T10:53:09.464Z,8531.00
2023-05-19T10:54:12.108Z,8494.00
2023-05-19T10:55:09.832Z,8719.00
2023-05-19T10:56:10.007Z,7928.00
2023-05-19T10:57:10.185Z,7965.00
2023-05-19T10:58:10.373Z,7454.00
2023-05-19T10:59:10.559Z,7353.00
2023-05-19T11:00:10.749Z,7314.00
2023-05-19T11:01:10.938Z,7565.00
2023-05-19T11:02:11.190Z,7846.00
2023-05-19T11:03:11.349Z,7985.00
2023-05-19T11:04:11.620Z,8477.00
2023-05-19T11:05:11.688Z,8564.00
2023-05-19T11:06:11.919Z,8346.00
2023-05-19T11:07:12.093Z,8117.00
2023-05-19T11:08:12.274Z,7977.00
2023-05-19T11:09:12.472Z,7882.00
2023-05-19T11:10:12.632Z,7817.00
2023-05-19T11:11:12.846Z,7843.00
2023-05-19T11:12:13.007Z,7865.00
2023-05-19T11:14:13.413Z,7853.00
2023-05-19T11:15:13.603Z,7897.00
2023-05-19T11:16:13.789Z,7943.00
2023-05-19T11:17:13.994Z,7985.00
2023-05-19T11:18:14.219Z,8070.00
2023-05-19T11:19:14.382Z,8158.00
2023-05-19T11:20:14.540Z,8260.00
2023-05-19T11:21:14.750Z,8345.00
2023-05-19T11:22:14.929Z,8422.00
2023-05-19T11:23:15.185Z,8443.00
2023-05-19T11:24:15.319Z,8447.00
2023-05-19T11:25:15.473Z,8376.00
2023-05-19T11:26:15.640Z,8319.00
2023-05-19T11:27:15.841Z,8268.00
2023-05-19T11:28:16.009Z,8157.00
2023-05-19T11:29:16.219Z,8013.00
2023-05-19T11:30:16.359Z,7960.00
2023-05-19T11:31:16.544Z,7967.00
2023-05-19T11:32:16.786Z,7964.00
2023-05-19T11:33:16.950Z,7877.00
2023-05-19T11:34:17.124Z,7788.00
2023-05-19T11:35:17.261Z,7598.00
2023-05-19T11:36:17.449Z,7505.00
2023-05-19T11:37:17.665Z,7378.00
2023-05-19T11:38:17.820Z,7290.00
2023-05-19T11:39:18.010Z,7255.00
2023-05-19T11:40:18.201Z,7292.00
2023-05-19T11:41:19.490Z,7394.00
2023-05-19T11:42:18.599Z,7563.00
2023-05-19T11:43:18.766Z,7725.00
2023-05-19T11:44:19.052Z,7542.00
2023-05-19T11:45:19.181Z,7901.00
2023-05-19T11:46:19.423Z,7592.00
2023-05-19T11:47:19.551Z,8300.00
2023-05-19T11:48:19.744Z,7753.00
2023-05-19T11:49:19.999Z,7522.00
2023-05-19T11:50:20.175Z,8302.00
2023-05-19T11:51:20.300Z,9156.00
2023-05-19T11:52:20.478Z,9935.00
2023-05-19T11:53:20.677Z,10719.00
2023-05-19T11:54:20.916Z,10973.00
2023-05-19T11:55:21.097Z,10978.00
2023-05-19T11:56:21.267Z,11151.00
2023-05-19T11:57:21.464Z,11700.00
2023-05-19T11:58:21.649Z,12177.00
2023-05-19T11:59:21.884Z,12105.00
2023-05-19T12:00:22.031Z,11183.00
2023-05-19T12:01:22.238Z,10854.00
2023-05-19T12:02:22.612Z,10035.00
2023-05-19T12:03:22.756Z,9701.00
2023-05-19T12:04:22.871Z,10349.00
2023-05-19T12:05:23.112Z,10009.00
2023-05-19T12:06:23.248Z,9984.00
2023-05-19T12:07:23.416Z,9600.00
2023-05-19T12:08:23.580Z,10111.00
2023-05-19T12:09:23.767Z,10750.00
2023-05-19T12:10:23.923Z,11257.00
2023-05-19T12:11:24.121Z,11772.00
2023-05-19T12:12:24.307Z,11378.00
2023-05-19T12:13:24.523Z,11092.00
2023-05-19T12:14:24.737Z,10889.00
2023-05-19T12:15:24.899Z,10920.00
2023-05-19T12:16:25.135Z,10856.00
2023-05-19T12:17:25.329Z,10615.00
2023-05-19T12:18:25.495Z,10600.00
2023-05-19T12:19:26.128Z,10902.00
2023-05-19T12:20:25.908Z,10843.00
2023-05-19T12:21:33.787Z,10662.00
2023-05-19T12:22:26.320Z,10171.00
2023-05-19T12:23:26.514Z,9632.00
2023-05-19T12:24:26.692Z,9265.00
2023-05-19T12:25:26.888Z,9262.00